Time,TemperatureF,DewpointF,PressureIn,WindDirection,WindDirectionDegrees,WindSpeedMPH,WindSpeedGustMPH,Humidity,HourlyPrecipIn,Conditions,Clouds,dailyrainin,SoftwareType,DateUTC
2013-10-04 00:39:00,47.3,46.8,30.03,East,90,0.0,-999.0,98,-99.99,,,0.00,Acu-Link.com,2013-10-04 04:39:00,
2013-10-04 00:54:00,46.9,46.4,30.03,NW,315,0.0,-999.0,98,-99.99,,,0.00,Acu-Link.com,2013-10-04 04:54:00,
2013-10-04 01:10:00,46.6,46.1,30.04,East,90,0.0,-999.0,98,-99.99,,,0.00,Acu-Link.com,2013-10-04 05:10:00,
2013-10-04 01:27:00,46.2,45.7,30.04,ESE,112,0.0,-999.0,98,-99.99,,,0.00,Acu-Link.com,2013-10-04 05:27:00,
2013-10-04 01:42:00,46.2,45.7,30.04,ESE,112,0.0,-999.0,98,-99.99,,,0.00,Acu-Link.com,2013-10-04 05:42:00,
2013-10-04 01:58:00,45.9,45.4,30.04,ESE,112,0.0,-999.0,98,-99.99,,,0.00,Acu-Link.com,2013-10-04 05:58:00,
2013-10-04 02:13:00,45.9,45.4,30.04,ESE,112,0.0,-999.0,98,-99.99,,,0.00,Acu-Link.com,2013-10-04 06:13:00,
2013-10-04 02:28:00,45.7,45.2,30.04,ESE,112,0.0,-999.0,98,-99.99,,,0.00,Acu-Link.com,2013-10-04 06:28:00,
2013-10-04 02:43:00,45.5,45.0,30.04,ESE,112,0.0,-999.0,98,-99.99,,,0.00,Acu-Link.com,2013-10-04 06:43:00,
2013-10-04 02:58:00,45.1,44.6,30.03,ESE,112,0.0,-999.0,98,-99.99,,,0.00,Acu-Link.com,2013-10-04 06:58:00,
2013-10-04 03:14:00,45.1,44.6,30.03,ESE,112,0.0,-999.0,98,-99.99,,,0.00,Acu-Link.com,2013-10-04 07:14:00,
2013-10-04 03:30:00,45.0,44.5,30.04,ESE,112,0.0,-999.0,98,-99.99,,,0.00,Acu-Link.com,2013-10-04 07:30:00,
2013-10-04 03:45:00,44.8,44.3,30.03,ESE,112,0.0,-999.0,98,-99.99,,,0.00,Acu-Link.com,2013-10-04 07:45:00,
2013-10-04 04:01:00,44.8,44.3,30.03,ESE,112,0.0,-999.0,98,-99.99,,,0.00,Acu-Link.com,2013-10-04 08:01:00,
2013-10-04 04:16:00,44.4,43.9,30.03,ESE,112,0.0,-999.0,98,-99.99,,,0.00,Acu-Link.com,2013-10-04 08:16:00,
2013-10-04 04:31:00,44.4,43.9,30.04,ESE,112,0.0,-999.0,98,-99.99,,,0.00,Acu-Link.com,2013-10-04 08:31:00,
2013-10-04 04:46:00,44.2,43.7,30.03,ESE,112,0.0,-999.0,98,-99.99,,,0.00,Acu-Link.com,2013-10-04 08:46:00,
2013-10-04 05:01:00,44.1,43.6,30.03,ESE,112,0.0,-999.0,98,-99.99,,,0.00,Acu-Link.com,2013-10-04 09:01:00,
2013-10-04 05:16:00,44.1,43.6,30.03,ESE,112,0.0,-999.0,98,-99.99,,,0.00,Acu-Link.com,2013-10-04 09:16:00,
2013-10-04 05:31:00,44.1,43.6,30.04,ESE,112,0.0,-999.0,98,-99.99,,,0.00,Acu-Link.com,2013-10-04 09:31:00,
2013-10-04 05:47:00,43.9,43.4,30.05,ESE,112,0.0,-999.0,98,-99.99,,,0.00,Acu-Link.com,2013-10-04 09:47:00,
2013-10-04 06:02:00,43.7,43.2,30.05,ESE,112,0.0,-999.0,98,-99.99,,,0.00,Acu-Link.com,2013-10-04 10:02:00,
2013-10-04 06:17:00,43.7,43.2,30.05,ESE,112,0.0,-999.0,98,-99.99,,,0.00,Acu-Link.com,2013-10-04 10:17:00,
2013-10-04 06:32:00,43.7,43.2,30.06,ESE,112,0.0,-999.0,98,-99.99,,,0.00,Acu-Link.com,2013-10-04 10:32:00,
2013-10-04 06:47:00,43.5,43.0,30.06,ESE,112,0.0,-999.0,98,-99.99,,,0.00,Acu-Link.com,2013-10-04 10:47:00,
2013-10-04 07:03:00,43.5,43.0,30.06,ESE,112,0.0,-999.0,98,-99.99,,,0.00,Acu-Link.com,2013-10-04 11:03:00,
2013-10-04 07:18:00,43.7,43.2,30.06,ESE,112,0.0,-999.0,98,-99.99,,,0.00,Acu-Link.com,2013-10-04 11:18:00,
2013-10-04 07:33:00,44.1,43.6,30.07,ESE,112,0.0,-999.0,98,-99.99,,,0.00,Acu-Link.com,2013-10-04 11:33:00,
2013-10-04 07:48:00,44.4,43.9,30.07,ESE,112,0.0,-999.0,98,-99.99,,,0.00,Acu-Link.com,2013-10-04 11:48:00,
2013-10-04 08:03:00,45.3,44.8,30.07,ESE,112,0.0,-999.0,98,-99.99,,,0.00,Acu-Link.com,2013-10-04 12:03:00,
2013-10-04 08:19:00,47.1,46.6,30.08,ESE,112,0.0,-999.0,98,-99.99,,,0.00,Acu-Link.com,2013-10-04 12:19:00,
2013-10-04 08:34:00,48.6,48.1,30.08,ESE,112,0.0,-999.0,98,-99.99,,,0.00,Acu-Link.com,2013-10-04 12:34:00,
2013-10-04 08:49:00,49.5,49.0,30.07,ESE,112,0.0,-999.0,98,-99.99,,,0.00,Acu-Link.com,2013-10-04 12:49:00,
2013-10-04 09:04:00,51.4,50.9,30.07,ESE,112,0.0,-999.0,98,-99.99,,,0.00,Acu-Link.com,2013-10-04 13:04:00,
2013-10-04 09:20:00,53.4,52.8,30.07,ESE,112,0.0,-999.0,98,-99.99,,,0.00,Acu-Link.com,2013-10-04 13:20:00,
2013-10-04 09:35:00,55.4,54.8,30.08,ESE,112,0.0,-999.0,98,-99.99,,,0.00,Acu-Link.com,2013-10-04 13:35:00,
2013-10-04 09:50:00,57.0,56.4,30.08,ESE,112,0.0,-999.0,98,-99.99,,,0.00,Acu-Link.com,2013-10-04 13:50:00,
2013-10-04 10:05:00,59.9,59.3,30.08,ESE,112,0.0,-999.0,98,-99.99,,,0.00,Acu-Link.com,2013-10-04 14:05:00,
2013-10-04 10:21:00,61.0,60.4,30.08,South,180,0.0,-999.0,98,-99.99,,,0.00,Acu-Link.com,2013-10-04 14:21:00,
2013-10-04 10:36:00,61.3,60.7,30.07,NNE,22,0.0,-999.0,98,-99.99,,,0.00,Acu-Link.com,2013-10-04 14:36:00,
2013-10-04 10:51:00,65.7,65.1,30.06,West,270,0.0,-999.0,98,-99.99,,,0.00,Acu-Link.com,2013-10-04 14:51:00,
2013-10-04 11:06:00,64.4,63.8,30.06,ESE,112,0.0,-999.0,98,-99.99,,,0.00,Acu-Link.com,2013-10-04 15:06:00,
2013-10-04 11:21:00,65.7,65.1,30.05,NW,315,0.0,-999.0,98,-99.99,,,0.00,Acu-Link.com,2013-10-04 15:21:00,
2013-10-04 11:37:00,65.8,65.2,30.05,NW,315,0.0,-999.0,98,-99.99,,,0.00,Acu-Link.com,2013-10-04 15:37:00,
2013-10-04 11:52:00,66.2,65.6,30.05,NW,315,0.0,-999.0,98,-99.99,,,0.00,Acu-Link.com,2013-10-04 15:52:00,
2013-10-04 12:07:00,64.8,64.2,30.05,SSW,202,0.0,-999.0,98,-99.99,,,0.00,Acu-Link.com,2013-10-04 16:07:00,
2013-10-04 12:38:00,65.1,64.5,30.04,NNW,337,0.0,-999.0,98,-99.99,,,0.00,Acu-Link.com,2013-10-04 16:38:00,
2013-10-04 12:53:00,64.2,63.6,30.04,WNW,292,0.0,-999.0,98,-99.99,,,0.00,Acu-Link.com,2013-10-04 16:53:00,
2013-10-04 13:08:00,64.2,63.6,30.04,NW,315,0.0,-999.0,98,-99.99,,,0.00,Acu-Link.com,2013-10-04 17:08:00,
2013-10-04 13:23:00,64.2,63.6,30.04,NW,315,0.0,-999.0,98,-99.99,,,0.00,Acu-Link.com,2013-10-04 17:23:00,
2013-10-04 14:09:00,65.8,65.2,30.02,NW,315,0.0,-999.0,98,-99.99,,,0.00,Acu-Link.com,2013-10-04 18:09:00,
2013-10-04 14:24:00,66.4,65.8,30.00,NNE,22,0.0,-999.0,98,-99.99,,,0.00,Acu-Link.com,2013-10-04 18:24:00,
2013-10-04 14:39:00,66.9,66.3,30.01,WNW,292,0.0,-999.0,98,-99.99,,,0.00,Acu-Link.com,2013-10-04 18:39:00,
2013-10-04 14:54:00,66.7,66.1,30.00,WNW,292,0.0,-999.0,98,-99.99,,,0.00,Acu-Link.com,2013-10-04 18:54:00,
2013-10-04 15:10:00,66.6,66.0,30.01,WNW,292,0.0,-999.0,98,-99.99,,,0.00,Acu-Link.com,2013-10-04 19:10:00,
2013-10-04 15:25:00,66.6,66.0,30.01,WSW,247,0.0,-999.0,98,-99.99,,,0.00,Acu-Link.com,2013-10-04 19:25:00,
2013-10-04 15:40:00,66.4,65.8,30.01,WSW,247,0.0,-999.0,98,-99.99,,,0.00,Acu-Link.com,2013-10-04 19:40:00,
2013-10-04 15:56:00,66.2,65.6,30.00,WSW,247,0.0,-999.0,98,-99.99,,,0.00,Acu-Link.com,2013-10-04 19:56:00,
2013-10-04 16:11:00,65.7,65.1,30.00,WSW,247,0.0,-999.0,98,-99.99,,,0.00,Acu-Link.com,2013-10-04 20:11:00,
2013-10-04 16:26:00,65.1,64.5,30.00,West,270,0.0,-999.0,98,-99.99,,,0.00,Acu-Link.com,2013-10-04 20:26:00,
2013-10-04 16:41:00,64.6,64.0,30.00,West,270,0.0,-999.0,98,-99.99,,,0.00,Acu-Link.com,2013-10-04 20:41:00,
2013-10-04 16:56:00,64.4,63.8,30.01,West,270,0.0,-999.0,98,-99.99,,,0.00,Acu-Link.com,2013-10-04 20:56:00,
2013-10-04 17:12:00,63.9,63.3,30.01,West,270,0.0,-999.0,98,-99.99,,,0.00,Acu-Link.com,2013-10-04 21:12:00,
2013-10-04 17:27:00,63.3,62.7,30.00,West,270,0.0,-999.0,98,-99.99,,,0.00,Acu-Link.com,2013-10-04 21:27:00,
2013-10-04 17:42:00,62.8,62.2,30.00,West,270,0.0,-999.0,98,-99.99,,,0.00,Acu-Link.com,2013-10-04 21:42:00,
2013-10-04 17:57:00,62.1,61.5,30.01,West,270,0.0,-999.0,98,-99.99,,,0.00,Acu-Link.com,2013-10-04 21:57:00,
2013-10-04 18:12:00,61.3,60.7,30.01,West,270,0.0,-999.0,98,-99.99,,,0.00,Acu-Link.com,2013-10-04 22:12:00,
2013-10-04 18:28:00,60.8,60.2,30.00,West,270,0.0,-999.0,98,-99.99,,,0.00,Acu-Link.com,2013-10-04 22:28:00,
2013-10-04 18:43:00,60.1,59.5,30.00,West,270,0.0,-999.0,98,-99.99,,,0.00,Acu-Link.com,2013-10-04 22:43:00,
2013-10-04 18:58:00,59.2,58.6,30.00,West,270,0.0,-999.0,98,-99.99,,,0.00,Acu-Link.com,2013-10-04 22:58:00,
2013-10-04 19:13:00,58.3,57.7,30.00,West,270,0.0,-999.0,98,-99.99,,,0.00,Acu-Link.com,2013-10-04 23:13:00,
2013-10-04 19:28:00,57.6,57.0,30.00,West,270,0.0,-999.0,98,-99.99,,,0.00,Acu-Link.com,2013-10-04 23:28:00,
2013-10-04 19:44:00,56.8,56.2,30.01,West,270,0.0,-999.0,98,-99.99,,,0.00,Acu-Link.com,2013-10-04 23:44:00,
2013-10-04 19:59:00,56.3,55.7,30.01,West,270,0.0,-999.0,98,-99.99,,,0.00,Acu-Link.com,2013-10-04 23:59:00,
2013-10-04 20:14:00,55.8,55.2,30.01,West,270,0.0,-999.0,98,-99.99,,,0.00,Acu-Link.com,2013-10-05 00:14:00,
2013-10-04 20:29:00,55.0,54.4,30.01,West,270,0.0,-999.0,98,-99.99,,,0.00,Acu-Link.com,2013-10-05 00:29:00,
2013-10-04 20:44:00,54.5,53.9,30.01,West,270,0.0,-999.0,98,-99.99,,,0.00,Acu-Link.com,2013-10-05 00:44:00,
2013-10-04 21:00:00,54.1,53.5,30.02,WSW,247,0.0,-999.0,98,-99.99,,,0.00,Acu-Link.com,2013-10-05 01:00:00,
2013-10-04 21:15:00,54.0,53.4,30.02,SW,225,0.0,-999.0,98,-99.99,,,0.00,Acu-Link.com,2013-10-05 01:15:00,
2013-10-04 21:30:00,54.0,53.4,30.03,SW,225,0.0,-999.0,98,-99.99,,,0.00,Acu-Link.com,2013-10-05 01:30:00,
2013-10-04 21:45:00,54.0,53.4,30.02,SW,225,0.0,-999.0,98,-99.99,,,0.00,Acu-Link.com,2013-10-05 01:45:00,
2013-10-04 22:01:00,54.0,53.4,30.03,SW,225,0.0,-999.0,98,-99.99,,,0.00,Acu-Link.com,2013-10-05 02:01:00,
2013-10-04 22:16:00,54.1,53.5,30.04,SW,225,0.0,-999.0,98,-99.99,,,0.00,Acu-Link.com,2013-10-05 02:16:00,
2013-10-04 22:31:00,54.3,53.7,30.03,SSW,202,0.0,-999.0,98,-99.99,,,0.00,Acu-Link.com,2013-10-05 02:31:00,
2013-10-04 22:46:00,54.3,53.7,30.04,SSW,202,0.0,-999.0,98,-99.99,,,0.00,Acu-Link.com,2013-10-05 02:46:00,
2013-10-04 23:02:00,54.3,53.7,30.04,SW,225,0.0,-999.0,98,-99.99,,,0.00,Acu-Link.com,2013-10-05 03:02:00,
2013-10-04 23:17:00,54.5,53.9,30.04,SW,225,0.0,-999.0,98,-99.99,,,0.00,Acu-Link.com,2013-10-05 03:17:00,
2013-10-04 23:32:00,54.5,53.9,30.04,SW,225,0.0,-999.0,98,-99.99,,,0.00,Acu-Link.com,2013-10-05 03:32:00,
2013-10-04 23:47:00,54.5,53.9,30.04,South,180,0.0,-999.0,98,-99.99,,,0.00,Acu-Link.com,2013-10-05 03:47:00,